ENHV/HVG METAR and TAF weather

Enter ICAO airport designator
Station Type Date Time Source
ENHV METAR 2018/01/17 05:50 UTC NOAA

ENHV 170550Z 19024G35KT 140V220 9999 FEW017 M06/M10 Q0996


Station Type Date Time Source
ENHV Decoded METAR 2018/01/17 05:50 UTC NOAA

Honningsvag / Valan, Norway (ENHV) 71-01N 025-59E 14M
Jan 17, 2018 - 12:50 AM EST / 2018.01.17 0550 UTC
Wind: from the S (190 degrees) at 28 MPH (24 KT) gusting to 40 MPH (35 KT) (direction variable):0
Visibility: greater than 7 mile(s):0
Sky conditions: mostly clear
Temperature: 21 F (-6 C)
Windchill: 3 F (-16 C):1
Dew Point: 14 F (-10 C)
Relative Humidity: 73%
Pressure (altimeter): 29.41 in. Hg (0996 hPa)
ob: ENHV 170550Z 19024G35KT 140V220 9999 FEW017 M06/M10 Q0996
cycle: 6

Station Type Date Time Source
ENHV TAF UTC NOAA

Error!


Example: see airport list